sensor_id;sensor_type;location;lat;lon;timestamp;P1;durP1;ratioP1;P2;durP2;ratioP2
61336;SDS011;47212;41.326;2.104;2023-04-16T00:06:45;7.15;;;2.22;;
61336;SDS011;47212;41.326;2.104;2023-04-16T00:11:47;5.90;;;2.53;;
61336;SDS011;47212;41.326;2.104;2023-04-16T00:16:52;10.73;;;3.78;;
61336;SDS011;47212;41.326;2.104;2023-04-16T00:21:54;10.65;;;2.70;;
61336;SDS011;47212;41.326;2.104;2023-04-16T00:26:56;12.02;;;2.85;;
61336;SDS011;47212;41.326;2.104;2023-04-16T00:31:59;7.25;;;2.58;;
61336;SDS011;47212;41.326;2.104;2023-04-16T00:37:06;5.85;;;2.50;;
61336;SDS011;47212;41.326;2.104;2023-04-16T00:47:11;4.55;;;2.25;;
61336;SDS011;47212;41.326;2.104;2023-04-16T00:52:14;12.27;;;3.40;;
61336;SDS011;47212;41.326;2.104;2023-04-16T00:57:18;11.73;;;3.22;;
61336;SDS011;47212;41.326;2.104;2023-04-16T01:05:13;8.38;;;2.78;;
61336;SDS011;47212;41.326;2.104;2023-04-16T01:10:15;6.05;;;3.15;;
61336;SDS011;47212;41.326;2.104;2023-04-16T01:15:18;8.38;;;3.13;;
61336;SDS011;47212;41.326;2.104;2023-04-16T01:20:21;10.00;;;3.42;;
61336;SDS011;47212;41.326;2.104;2023-04-16T01:25:23;11.05;;;3.03;;
61336;SDS011;47212;41.326;2.104;2023-04-16T01:30:26;10.15;;;3.03;;
61336;SDS011;47212;41.326;2.104;2023-04-16T01:35:38;12.30;;;6.95;;
61336;SDS011;47212;41.326;2.104;2023-04-16T01:40:41;10.60;;;3.80;;
61336;SDS011;47212;41.326;2.104;2023-04-16T01:45:43;6.93;;;3.22;;
61336;SDS011;47212;41.326;2.104;2023-04-16T01:50:46;9.65;;;3.10;;
61336;SDS011;47212;41.326;2.104;2023-04-16T01:55:48;6.10;;;2.80;;
61336;SDS011;47212;41.326;2.104;2023-04-16T02:00:51;6.47;;;2.90;;
61336;SDS011;47212;41.326;2.104;2023-04-16T02:10:56;4.85;;;2.88;;
61336;SDS011;47212;41.326;2.104;2023-04-16T02:16:00;5.80;;;2.67;;
61336;SDS011;47212;41.326;2.104;2023-04-16T02:21:29;6.75;;;2.60;;
61336;SDS011;47212;41.326;2.104;2023-04-16T02:26:40;5.63;;;2.53;;
61336;SDS011;47212;41.326;2.104;2023-04-16T02:31:48;5.55;;;2.13;;
61336;SDS011;47212;41.326;2.104;2023-04-16T02:36:50;6.60;;;2.30;;
61336;SDS011;47212;41.326;2.104;2023-04-16T02:41:53;8.77;;;2.88;;
61336;SDS011;47212;41.326;2.104;2023-04-16T02:52:01;4.95;;;2.30;;
61336;SDS011;47212;41.326;2.104;2023-04-16T02:57:03;6.95;;;2.25;;
61336;SDS011;47212;41.326;2.104;2023-04-16T03:02:06;7.43;;;2.85;;
61336;SDS011;47212;41.326;2.104;2023-04-16T03:07:09;7.50;;;2.72;;
61336;SDS011;47212;41.326;2.104;2023-04-16T03:12:13;7.05;;;2.70;;
61336;SDS011;47212;41.326;2.104;2023-04-16T03:17:15;4.18;;;2.20;;
61336;SDS011;47212;41.326;2.104;2023-04-16T03:22:17;4.97;;;2.00;;
61336;SDS011;47212;41.326;2.104;2023-04-16T03:27:20;3.67;;;1.98;;
61336;SDS011;47212;41.326;2.104;2023-04-16T03:32:25;5.75;;;2.10;;
61336;SDS011;47212;41.326;2.104;2023-04-16T03:37:28;3.00;;;1.83;;
61336;SDS011;47212;41.326;2.104;2023-04-16T03:42:31;4.20;;;1.77;;
61336;SDS011;47212;41.326;2.104;2023-04-16T03:47:34;4.57;;;2.15;;
61336;SDS011;47212;41.326;2.104;2023-04-16T03:52:37;8.52;;;5.30;;
61336;SDS011;47212;41.326;2.104;2023-04-16T04:08:54;13.88;;;8.55;;
61336;SDS011;47212;41.326;2.104;2023-04-16T04:13:56;9.57;;;5.97;;
61336;SDS011;47212;41.326;2.104;2023-04-16T04:18:58;8.43;;;4.43;;
61336;SDS011;47212;41.326;2.104;2023-04-16T04:24:38;5.18;;;2.55;;
61336;SDS011;47212;41.326;2.104;2023-04-16T04:30:21;2.47;;;1.60;;
61336;SDS011;47212;41.326;2.104;2023-04-16T04:36:04;4.95;;;2.03;;
61336;SDS011;47212;41.326;2.104;2023-04-16T04:41:08;2.03;;;1.10;;
61336;SDS011;47212;41.326;2.104;2023-04-16T04:46:12;2.67;;;1.15;;
61336;SDS011;47212;41.326;2.104;2023-04-16T04:51:18;2.75;;;1.10;;
61336;SDS011;47212;41.326;2.104;2023-04-16T05:01:23;1.87;;;1.07;;
61336;SDS011;47212;41.326;2.104;2023-04-16T05:06:25;2.90;;;0.93;;
61336;SDS011;47212;41.326;2.104;2023-04-16T05:11:32;1.45;;;0.93;;
61336;SDS011;47212;41.326;2.104;2023-04-16T05:16:35;1.15;;;0.93;;
61336;SDS011;47212;41.326;2.104;2023-04-16T05:21:37;2.10;;;1.20;;
61336;SDS011;47212;41.326;2.104;2023-04-16T05:26:39;1.27;;;0.90;;
61336;SDS011;47212;41.326;2.104;2023-04-16T05:31:41;1.90;;;0.90;;
61336;SDS011;47212;41.326;2.104;2023-04-16T05:36:43;2.58;;;1.00;;
61336;SDS011;47212;41.326;2.104;2023-04-16T05:41:47;4.38;;;1.02;;
61336;SDS011;47212;41.326;2.104;2023-04-16T05:46:49;1.85;;;0.90;;
61336;SDS011;47212;41.326;2.104;2023-04-16T05:51:51;1.10;;;0.90;;
61336;SDS011;47212;41.326;2.104;2023-04-16T05:56:53;1.63;;;1.25;;
61336;SDS011;47212;41.326;2.104;2023-04-16T06:01:55;1.48;;;1.00;;
61336;SDS011;47212;41.326;2.104;2023-04-16T06:06:58;1.42;;;0.93;;
61336;SDS011;47212;41.326;2.104;2023-04-16T06:12:06;1.15;;;1.00;;
61336;SDS011;47212;41.326;2.104;2023-04-16T06:17:17;1.63;;;0.90;;
61336;SDS011;47212;41.326;2.104;2023-04-16T06:22:20;2.42;;;1.30;;
61336;SDS011;47212;41.326;2.104;2023-04-16T06:27:22;1.25;;;1.08;;
61336;SDS011;47212;41.326;2.104;2023-04-16T06:32:24;1.23;;;1.10;;
61336;SDS011;47212;41.326;2.104;2023-04-16T06:42:28;3.83;;;1.30;;
61336;SDS011;47212;41.326;2.104;2023-04-16T06:47:31;1.55;;;1.10;;
61336;SDS011;47212;41.326;2.104;2023-04-16T06:52:33;2.55;;;1.10;;
61336;SDS011;47212;41.326;2.104;2023-04-16T06:57:35;2.38;;;1.05;;
61336;SDS011;47212;41.326;2.104;2023-04-16T07:02:38;2.28;;;1.38;;
61336;SDS011;47212;41.326;2.104;2023-04-16T07:07:40;2.05;;;0.90;;
61336;SDS011;47212;41.326;2.104;2023-04-16T07:17:45;1.25;;;0.90;;
61336;SDS011;47212;41.326;2.104;2023-04-16T07:22:47;2.03;;;1.13;;
61336;SDS011;47212;41.326;2.104;2023-04-16T07:27:50;1.13;;;0.93;;
61336;SDS011;47212;41.326;2.104;2023-04-16T07:32:52;1.83;;;1.30;;
61336;SDS011;47212;41.326;2.104;2023-04-16T07:37:56;2.95;;;1.17;;
61336;SDS011;47212;41.326;2.104;2023-04-16T07:42:58;4.57;;;1.02;;
61336;SDS011;47212;41.326;2.104;2023-04-16T07:48:01;1.73;;;1.02;;
61336;SDS011;47212;41.326;2.104;2023-04-16T07:53:03;1.80;;;1.20;;
61336;SDS011;47212;41.326;2.104;2023-04-16T07:58:08;1.65;;;0.93;;
61336;SDS011;47212;41.326;2.104;2023-04-16T08:03:10;1.90;;;1.17;;
61336;SDS011;47212;41.326;2.104;2023-04-16T08:08:12;3.53;;;1.10;;
61336;SDS011;47212;41.326;2.104;2023-04-16T08:13:15;2.30;;;1.00;;
61336;SDS011;47212;41.326;2.104;2023-04-16T08:18:22;1.90;;;1.10;;
61336;SDS011;47212;41.326;2.104;2023-04-16T08:23:24;1.80;;;1.10;;
61336;SDS011;47212;41.326;2.104;2023-04-16T08:28:26;1.50;;;1.10;;
61336;SDS011;47212;41.326;2.104;2023-04-16T08:33:28;2.08;;;1.20;;
61336;SDS011;47212;41.326;2.104;2023-04-16T08:38:31;1.42;;;1.00;;
61336;SDS011;47212;41.326;2.104;2023-04-16T08:43:33;6.35;;;1.45;;
61336;SDS011;47212;41.326;2.104;2023-04-16T08:48:38;2.90;;;1.17;;
61336;SDS011;47212;41.326;2.104;2023-04-16T08:53:47;1.35;;;1.00;;
61336;SDS011;47212;41.326;2.104;2023-04-16T08:58:54;1.40;;;0.90;;
61336;SDS011;47212;41.326;2.104;2023-04-16T09:03:59;3.78;;;0.80;;
61336;SDS011;47212;41.326;2.104;2023-04-16T09:09:04;1.45;;;0.90;;
61336;SDS011;47212;41.326;2.104;2023-04-16T09:14:13;1.85;;;1.00;;
61336;SDS011;47212;41.326;2.104;2023-04-16T09:19:15;1.00;;;0.80;;
61336;SDS011;47212;41.326;2.104;2023-04-16T09:24:18;1.42;;;0.95;;
61336;SDS011;47212;41.326;2.104;2023-04-16T09:29:36;1.52;;;0.82;;
61336;SDS011;47212;41.326;2.104;2023-04-16T09:40:00;2.10;;;1.10;;
61336;SDS011;47212;41.326;2.104;2023-04-16T09:45:04;6.20;;;1.70;;
61336;SDS011;47212;41.326;2.104;2023-04-16T09:50:17;4.07;;;1.65;;
61336;SDS011;47212;41.326;2.104;2023-04-16T09:55:26;6.00;;;1.50;;
61336;SDS011;47212;41.326;2.104;2023-04-16T10:00:31;5.72;;;1.73;;
61336;SDS011;47212;41.326;2.104;2023-04-16T10:05:33;1.88;;;1.20;;
61336;SDS011;47212;41.326;2.104;2023-04-16T10:10:35;5.10;;;1.48;;
61336;SDS011;47212;41.326;2.104;2023-04-16T10:15:38;2.08;;;1.20;;
61336;SDS011;47212;41.326;2.104;2023-04-16T10:20:41;4.25;;;1.40;;
61336;SDS011;47212;41.326;2.104;2023-04-16T10:25:44;7.88;;;1.67;;
61336;SDS011;47212;41.326;2.104;2023-04-16T10:30:48;3.95;;;2.33;;
61336;SDS011;47212;41.326;2.104;2023-04-16T10:41:27;6.07;;;2.90;;
61336;SDS011;47212;41.326;2.104;2023-04-16T10:46:32;5.90;;;1.88;;
61336;SDS011;47212;41.326;2.104;2023-04-16T10:51:43;7.35;;;2.00;;
61336;SDS011;47212;41.326;2.104;2023-04-16T10:56:57;9.38;;;1.95;;
61336;SDS011;47212;41.326;2.104;2023-04-16T11:02:12;8.30;;;1.73;;
61336;SDS011;47212;41.326;2.104;2023-04-16T11:07:20;5.68;;;1.70;;
61336;SDS011;47212;41.326;2.104;2023-04-16T11:12:36;6.20;;;2.10;;
61336;SDS011;47212;41.326;2.104;2023-04-16T11:22:48;8.35;;;2.83;;
61336;SDS011;47212;41.326;2.104;2023-04-16T11:27:51;6.43;;;2.38;;
61336;SDS011;47212;41.326;2.104;2023-04-16T11:32:54;6.38;;;2.30;;
61336;SDS011;47212;41.326;2.104;2023-04-16T11:37:56;8.00;;;3.22;;
61336;SDS011;47212;41.326;2.104;2023-04-16T11:43:02;6.07;;;3.60;;
61336;SDS011;47212;41.326;2.104;2023-04-16T11:48:13;5.88;;;2.20;;
61336;SDS011;47212;41.326;2.104;2023-04-16T11:53:15;11.63;;;9.00;;
61336;SDS011;47212;41.326;2.104;2023-04-16T11:58:17;9.60;;;5.65;;
61336;SDS011;47212;41.326;2.104;2023-04-16T12:03:40;5.50;;;2.65;;
61336;SDS011;47212;41.326;2.104;2023-04-16T12:09:23;3.83;;;2.00;;
61336;SDS011;47212;41.326;2.104;2023-04-16T12:14:26;3.53;;;1.95;;
61336;SDS011;47212;41.326;2.104;2023-04-16T12:19:29;3.38;;;1.70;;
61336;SDS011;47212;41.326;2.104;2023-04-16T12:29:33;5.85;;;2.70;;
61336;SDS011;47212;41.326;2.104;2023-04-16T12:34:43;4.43;;;2.33;;
61336;SDS011;47212;41.326;2.104;2023-04-16T12:39:52;4.97;;;2.30;;
61336;SDS011;47212;41.326;2.104;2023-04-16T12:44:54;3.10;;;2.08;;
61336;SDS011;47212;41.326;2.104;2023-04-16T12:49:57;3.45;;;1.90;;
61336;SDS011;47212;41.326;2.104;2023-04-16T12:55:00;3.60;;;1.77;;
61336;SDS011;47212;41.326;2.104;2023-04-16T13:00:03;3.03;;;1.40;;
61336;SDS011;47212;41.326;2.104;2023-04-16T13:05:17;2.70;;;1.40;;
61336;SDS011;47212;41.326;2.104;2023-04-16T13:10:20;4.00;;;1.83;;
61336;SDS011;47212;41.326;2.104;2023-04-16T13:15:24;3.17;;;1.70;;
61336;SDS011;47212;41.326;2.104;2023-04-16T13:20:26;3.13;;;1.50;;
61336;SDS011;47212;41.326;2.104;2023-04-16T13:25:29;4.40;;;1.40;;
61336;SDS011;47212;41.326;2.104;2023-04-16T13:30:31;1.95;;;1.20;;
61336;SDS011;47212;41.326;2.104;2023-04-16T13:35:34;2.83;;;1.30;;
61336;SDS011;47212;41.326;2.104;2023-04-16T13:40:36;3.13;;;1.33;;
61336;SDS011;47212;41.326;2.104;2023-04-16T13:45:38;2.72;;;1.33;;
61336;SDS011;47212;41.326;2.104;2023-04-16T13:50:41;5.90;;;1.58;;
61336;SDS011;47212;41.326;2.104;2023-04-16T13:55:43;4.07;;;1.65;;
61336;SDS011;47212;41.326;2.104;2023-04-16T14:00:45;5.28;;;1.70;;
61336;SDS011;47212;41.326;2.104;2023-04-16T14:05:47;4.05;;;1.23;;
61336;SDS011;47212;41.326;2.104;2023-04-16T14:25:56;2.30;;;1.20;;
61336;SDS011;47212;41.326;2.104;2023-04-16T14:36:00;4.15;;;1.35;;
61336;SDS011;47212;41.326;2.104;2023-04-16T14:41:29;4.63;;;1.42;;
61336;SDS011;47212;41.326;2.104;2023-04-16T14:46:31;3.25;;;1.48;;
61336;SDS011;47212;41.326;2.104;2023-04-16T14:51:34;2.88;;;1.58;;
61336;SDS011;47212;41.326;2.104;2023-04-16T14:56:36;2.92;;;1.50;;
61336;SDS011;47212;41.326;2.104;2023-04-16T15:01:38;3.80;;;1.50;;
61336;SDS011;47212;41.326;2.104;2023-04-16T15:06:49;3.93;;;1.73;;
61336;SDS011;47212;41.326;2.104;2023-04-16T15:11:56;2.00;;;1.20;;
61336;SDS011;47212;41.326;2.104;2023-04-16T15:16:58;3.63;;;1.40;;
61336;SDS011;47212;41.326;2.104;2023-04-16T15:22:01;3.85;;;1.63;;
61336;SDS011;47212;41.326;2.104;2023-04-16T15:27:03;4.95;;;1.52;;
61336;SDS011;47212;41.326;2.104;2023-04-16T15:32:10;4.32;;;1.30;;
61336;SDS011;47212;41.326;2.104;2023-04-16T15:37:21;3.63;;;1.60;;
61336;SDS011;47212;41.326;2.104;2023-04-16T15:47:25;3.72;;;1.40;;
61336;SDS011;47212;41.326;2.104;2023-04-16T15:52:27;3.03;;;1.27;;
61336;SDS011;47212;41.326;2.104;2023-04-16T15:57:29;1.63;;;1.13;;
61336;SDS011;47212;41.326;2.104;2023-04-16T16:02:31;2.05;;;1.30;;
61336;SDS011;47212;41.326;2.104;2023-04-16T16:07:34;2.63;;;1.40;;
61336;SDS011;47212;41.326;2.104;2023-04-16T16:12:37;2.83;;;1.35;;
61336;SDS011;47212;41.326;2.104;2023-04-16T16:17:39;2.17;;;1.27;;
61336;SDS011;47212;41.326;2.104;2023-04-16T16:22:41;2.72;;;1.20;;
61336;SDS011;47212;41.326;2.104;2023-04-16T16:27:45;3.25;;;1.35;;
61336;SDS011;47212;41.326;2.104;2023-04-16T16:32:47;4.97;;;1.40;;
61336;SDS011;47212;41.326;2.104;2023-04-16T16:37:50;3.83;;;1.60;;
61336;SDS011;47212;41.326;2.104;2023-04-16T16:43:02;2.60;;;1.23;;
61336;SDS011;47212;41.326;2.104;2023-04-16T16:48:04;1.75;;;0.95;;
61336;SDS011;47212;41.326;2.104;2023-04-16T16:53:07;2.38;;;1.40;;
61336;SDS011;47212;41.326;2.104;2023-04-16T16:58:09;3.35;;;1.23;;
61336;SDS011;47212;41.326;2.104;2023-04-16T17:03:11;2.00;;;1.10;;
61336;SDS011;47212;41.326;2.104;2023-04-16T17:08:14;3.05;;;1.02;;
61336;SDS011;47212;41.326;2.104;2023-04-16T17:13:27;2.33;;;1.27;;
61336;SDS011;47212;41.326;2.104;2023-04-16T17:18:51;2.35;;;1.10;;
61336;SDS011;47212;41.326;2.104;2023-04-16T17:23:54;4.28;;;1.35;;
61336;SDS011;47212;41.326;2.104;2023-04-16T17:29:01;3.28;;;1.20;;
61336;SDS011;47212;41.326;2.104;2023-04-16T17:34:05;1.55;;;1.02;;
61336;SDS011;47212;41.326;2.104;2023-04-16T17:39:07;4.45;;;1.58;;
61336;SDS011;47212;41.326;2.104;2023-04-16T17:44:10;1.83;;;0.93;;
61336;SDS011;47212;41.326;2.104;2023-04-16T17:49:12;2.78;;;1.35;;
61336;SDS011;47212;41.326;2.104;2023-04-16T17:59:16;7.53;;;1.55;;
61336;SDS011;47212;41.326;2.104;2023-04-16T18:04:18;3.75;;;1.23;;
61336;SDS011;47212;41.326;2.104;2023-04-16T18:09:20;4.97;;;1.10;;
61336;SDS011;47212;41.326;2.104;2023-04-16T18:14:23;2.55;;;1.20;;
61336;SDS011;47212;41.326;2.104;2023-04-16T18:19:30;4.70;;;1.10;;
61336;SDS011;47212;41.326;2.104;2023-04-16T18:24:32;2.40;;;1.30;;
61336;SDS011;47212;41.326;2.104;2023-04-16T18:29:36;3.40;;;1.20;;
61336;SDS011;47212;41.326;2.104;2023-04-16T18:34:41;5.00;;;1.70;;
61336;SDS011;47212;41.326;2.104;2023-04-16T18:39:43;7.03;;;1.45;;
61336;SDS011;47212;41.326;2.104;2023-04-16T18:44:51;5.38;;;1.67;;
61336;SDS011;47212;41.326;2.104;2023-04-16T18:49:54;5.38;;;1.73;;
61336;SDS011;47212;41.326;2.104;2023-04-16T18:59:58;4.07;;;1.52;;
61336;SDS011;47212;41.326;2.104;2023-04-16T19:05:00;2.70;;;1.30;;
61336;SDS011;47212;41.326;2.104;2023-04-16T19:10:05;3.30;;;1.30;;
61336;SDS011;47212;41.326;2.104;2023-04-16T19:15:07;3.75;;;1.40;;
61336;SDS011;47212;41.326;2.104;2023-04-16T19:20:10;8.52;;;2.15;;
61336;SDS011;47212;41.326;2.104;2023-04-16T19:25:12;4.35;;;1.38;;
61336;SDS011;47212;41.326;2.104;2023-04-16T19:30:14;4.75;;;1.70;;
61336;SDS011;47212;41.326;2.104;2023-04-16T19:35:16;4.47;;;1.45;;
61336;SDS011;47212;41.326;2.104;2023-04-16T19:40:18;7.60;;;1.67;;
61336;SDS011;47212;41.326;2.104;2023-04-16T19:45:21;3.83;;;1.38;;
61336;SDS011;47212;41.326;2.104;2023-04-16T19:50:26;6.72;;;1.67;;
61336;SDS011;47212;41.326;2.104;2023-04-16T19:55:32;7.68;;;1.88;;
61336;SDS011;47212;41.326;2.104;2023-04-16T20:00:35;6.38;;;1.98;;
61336;SDS011;47212;41.326;2.104;2023-04-16T20:05:46;3.10;;;1.63;;
61336;SDS011;47212;41.326;2.104;2023-04-16T20:10:51;4.35;;;1.60;;
61336;SDS011;47212;41.326;2.104;2023-04-16T20:15:55;4.97;;;1.52;;
61336;SDS011;47212;41.326;2.104;2023-04-16T20:21:02;3.28;;;1.70;;
61336;SDS011;47212;41.326;2.104;2023-04-16T20:26:05;6.13;;;1.45;;
61336;SDS011;47212;41.326;2.104;2023-04-16T20:31:07;9.55;;;2.90;;
61336;SDS011;47212;41.326;2.104;2023-04-16T20:41:11;4.70;;;1.60;;
61336;SDS011;47212;41.326;2.104;2023-04-16T20:46:20;3.03;;;1.50;;
61336;SDS011;47212;41.326;2.104;2023-04-16T20:51:31;4.18;;;1.55;;
61336;SDS011;47212;41.326;2.104;2023-04-16T20:56:34;3.47;;;1.60;;
61336;SDS011;47212;41.326;2.104;2023-04-16T21:01:49;8.45;;;2.08;;
61336;SDS011;47212;41.326;2.104;2023-04-16T21:06:52;6.22;;;1.83;;
61336;SDS011;47212;41.326;2.104;2023-04-16T21:12:20;4.63;;;1.60;;
61336;SDS011;47212;41.326;2.104;2023-04-16T21:17:25;5.88;;;2.10;;
61336;SDS011;47212;41.326;2.104;2023-04-16T21:22:27;2.50;;;1.15;;
61336;SDS011;47212;41.326;2.104;2023-04-16T21:32:33;5.50;;;1.63;;
61336;SDS011;47212;41.326;2.104;2023-04-16T21:37:35;2.85;;;1.25;;
61336;SDS011;47212;41.326;2.104;2023-04-16T21:42:37;3.03;;;1.50;;
61336;SDS011;47212;41.326;2.104;2023-04-16T21:47:42;4.00;;;1.80;;
61336;SDS011;47212;41.326;2.104;2023-04-16T21:52:44;4.55;;;1.77;;
61336;SDS011;47212;41.326;2.104;2023-04-16T21:57:47;3.08;;;1.52;;
61336;SDS011;47212;41.326;2.104;2023-04-16T22:02:49;3.25;;;1.30;;
61336;SDS011;47212;41.326;2.104;2023-04-16T22:07:52;3.28;;;1.50;;
61336;SDS011;47212;41.326;2.104;2023-04-16T22:12:54;4.65;;;1.35;;
61336;SDS011;47212;41.326;2.104;2023-04-16T22:17:56;5.53;;;1.73;;
61336;SDS011;47212;41.326;2.104;2023-04-16T22:22:58;3.72;;;1.50;;
61336;SDS011;47212;41.326;2.104;2023-04-16T22:28:01;5.45;;;2.00;;
61336;SDS011;47212;41.326;2.104;2023-04-16T22:33:07;3.67;;;1.50;;
61336;SDS011;47212;41.326;2.104;2023-04-16T22:38:09;5.28;;;2.03;;
61336;SDS011;47212;41.326;2.104;2023-04-16T22:43:11;6.32;;;1.80;;
61336;SDS011;47212;41.326;2.104;2023-04-16T22:48:13;10.85;;;3.25;;
61336;SDS011;47212;41.326;2.104;2023-04-16T22:53:16;4.00;;;1.83;;
61336;SDS011;47212;41.326;2.104;2023-04-16T22:58:21;3.03;;;1.80;;
61336;SDS011;47212;41.326;2.104;2023-04-16T23:03:26;4.13;;;2.00;;
61336;SDS011;47212;41.326;2.104;2023-04-16T23:08:29;4.55;;;2.22;;
61336;SDS011;47212;41.326;2.104;2023-04-16T23:13:36;8.82;;;4.20;;
61336;SDS011;47212;41.326;2.104;2023-04-16T23:23:40;2.88;;;1.60;;
61336;SDS011;47212;41.326;2.104;2023-04-16T23:28:42;6.22;;;2.38;;
61336;SDS011;47212;41.326;2.104;2023-04-16T23:38:46;3.27;;;1.67;;
61336;SDS011;47212;41.326;2.104;2023-04-16T23:43:49;7.60;;;2.08;;
61336;SDS011;47212;41.326;2.104;2023-04-16T23:48:51;4.90;;;2.30;;
61336;SDS011;47212;41.326;2.104;2023-04-16T23:53:56;6.78;;;2.15;;
61336;SDS011;47212;41.326;2.104;2023-04-16T23:58:58;4.43;;;2.17;;
